KPBF/PBF METAR and TAF weather

Enter ICAO airport designator
Station Type Date Time Source
KPBF METAR 2019/02/17 14:53 UTC NOAA

KPBF 171453Z AUTO 33006KT 10SM OVC007 04/03 A2985 RMK AO2 RAB01E31 CIG 005V010 SLP108 P0000 60001 T00390028 51021


Station Type Date Time Source
KPBF Decoded METAR 2019/02/17 14:53 UTC NOAA

PINE BLUFF GRIDER FIELD, AR, United States (KPBF) 34-11N 091-56W 62M
Feb 17, 2019 - 09:53 AM EST / 2019.02.17 1453 UTC
Wind: from the NNW (330 degrees) at 7 MPH (6 KT):0
Visibility: 10 mile(s):0
Sky conditions: overcast
Precipitation last hour: A trace
Temperature: 39.0 F (3.9 C)
Dew Point: 37.0 F (2.8 C)
Relative Humidity: 92%
Pressure (altimeter): 29.85 in. Hg (1010 hPa)
Pressure tendency: 0.06 inches (2.1 hPa) higher than three hours ago
ob: KPBF 171453Z AUTO 33006KT 10SM OVC007 04/03 A2985 RMK AO2 RAB01E31 CIG 005V010 SLP108 P0000 60001 T00390028 51021
cycle: 15

Station Type Date Time Source
KPBF TAF 2019/02/17 12:42 UTC NOAA

TAF KPBF 171139Z 1712/1812 36006KT 5SM -RADZ BR OVC003
TEMPO 1712/1715 OVC009
FM171500 30009KT P6SM OVC015
FM171900 30010G18KT P6SM OVC025
FM180300 32008KT P6SM BKN250


Example: see airport list